Time;durP1;ratioP1;P1;durP2;ratioP2;P2;SDS_P1;SDS_P2;PMS_P1;PMS_P2;Temp;Humidity;BMP_temperature;BMP_pressure;BME280_temperature;BME280_humidity;BME280_pressure;Samples;Min_cycle;Max_cycle;Signal;HPM_P1;HPM_P2
2022/03/19 00:01:05;;;;;;;14.95;7.25;;;18.30;54.80;;;;;;4947882;28;99726;-70
2022/03/19 00:03:30;;;;;;;18.17;7.70;;;18.30;54.80;;;;;;4949491;28;98622;-70
2022/03/19 00:05:56;;;;;;;15.07;7.20;;;18.30;54.80;;;;;;4947683;28;99316;-70
2022/03/19 00:08:23;;;;;;;16.95;7.32;;;18.30;54.80;;;;;;4947994;28;99004;-70
2022/03/19 00:10:51;;;;;;;13.38;6.82;;;18.30;54.70;;;;;;4947776;28;98568;-70
2022/03/19 00:13:17;;;;;;;14.73;6.82;;;18.30;54.60;;;;;;4947847;28;98852;-70
2022/03/19 00:15:44;;;;;;;18.45;7.15;;;18.20;54.50;;;;;;4946805;28;100244;-70
2022/03/19 00:18:09;;;;;;;17.40;7.43;;;18.20;54.60;;;;;;4947814;28;98879;-70
2022/03/19 00:20:37;;;;;;;12.23;6.32;;;18.20;54.50;;;;;;4947525;28;98818;-70
2022/03/19 00:23:04;;;;;;;14.68;6.93;;;18.20;54.40;;;;;;4929321;28;98745;-70
2022/03/19 00:25:30;;;;;;;15.32;7.00;;;18.20;54.40;;;;;;4946910;28;101076;-70
2022/03/19 00:27:56;;;;;;;14.65;6.80;;;18.20;54.40;;;;;;4946787;28;100598;-70
2022/03/19 00:30:21;;;;;;;13.27;6.80;;;18.20;54.30;;;;;;4947663;28;99228;-70
2022/03/19 00:32:47;;;;;;;15.10;6.20;;;18.20;54.40;;;;;;4950201;28;99315;-72
2022/03/19 00:35:12;;;;;;;14.77;6.35;;;18.20;54.30;;;;;;4951202;28;100006;-70
2022/03/19 00:37:46;;;;;;;15.18;6.65;;;18.20;54.20;;;;;;4948151;28;98796;-71
2022/03/19 00:40:13;;;;;;;12.73;6.10;;;18.20;54.20;;;;;;4947484;28;99095;-70
2022/03/19 00:42:39;;;;;;;13.75;6.38;;;18.10;54.10;;;;;;4947278;28;99252;-70
2022/03/19 00:45:05;;;;;;;13.02;6.00;;;18.10;54.10;;;;;;4947237;28;99531;-70
2022/03/19 00:47:31;;;;;;;11.68;5.88;;;18.10;54.00;;;;;;4946207;28;98768;-70
2022/03/19 00:49:57;;;;;;;14.18;5.75;;;18.10;54.00;;;;;;4947219;28;99304;-70
2022/03/19 00:52:23;;;;;;;14.70;6.32;;;18.10;54.00;;;;;;4947729;28;99084;-70
2022/03/19 00:54:49;;;;;;;15.00;6.45;;;18.10;54.00;;;;;;4946427;28;110164;-70
2022/03/19 00:57:14;;;;;;;13.55;5.80;;;18.10;53.90;;;;;;4946634;28;100496;-70
2022/03/19 00:59:40;;;;;;;11.38;5.30;;;18.10;53.90;;;;;;4946305;28;100278;-70
2022/03/19 01:02:05;;;;;;;11.10;5.45;;;18.10;53.90;;;;;;4947196;28;98737;-72
2022/03/19 01:04:32;;;;;;;11.15;5.20;;;18.10;53.90;;;;;;4946502;28;100350;-72
2022/03/19 01:06:58;;;;;;;11.65;5.53;;;18.10;53.80;;;;;;4947116;28;113156;-72
2022/03/19 01:09:23;;;;;;;13.30;6.00;;;18.10;53.80;;;;;;4947657;28;98831;-71
2022/03/19 01:11:51;;;;;;;13.55;5.80;;;18.10;53.80;;;;;;4948207;28;99329;-71
2022/03/19 01:14:16;;;;;;;9.77;4.75;;;18.10;53.60;;;;;;4946746;28;100386;-70
2022/03/19 01:16:42;;;;;;;11.45;5.10;;;18.00;53.70;;;;;;4947510;28;100573;-70
2022/03/19 01:19:08;;;;;;;11.38;5.28;;;18.00;53.70;;;;;;4947008;28;98562;-70
2022/03/19 01:21:35;;;;;;;11.85;5.53;;;18.00;53.50;;;;;;4947530;28;98472;-70
2022/03/19 01:24:02;;;;;;;10.02;4.68;;;18.00;53.50;;;;;;4945990;28;99319;-71
2022/03/19 01:26:27;;;;;;;9.15;4.53;;;18.00;53.50;;;;;;4945454;28;99004;-71
2022/03/19 01:28:53;;;;;;;11.88;5.20;;;18.00;53.50;;;;;;4946221;28;98988;-71
2022/03/19 01:31:21;;;;;;;9.07;4.88;;;18.00;53.50;;;;;;4946709;28;98348;-70
2022/03/19 01:33:47;;;;;;;13.57;5.18;;;18.00;53.50;;;;;;4948271;28;99290;-71
2022/03/19 01:36:12;;;;;;;11.73;4.93;;;18.00;53.40;;;;;;4949654;28;112422;-71
2022/03/19 01:38:38;;;;;;;10.60;5.03;;;18.00;53.30;;;;;;4949593;28;99479;-70
2022/03/19 01:41:04;;;;;;;10.18;4.47;;;17.90;53.20;;;;;;4948939;28;98587;-70
2022/03/19 01:43:29;;;;;;;11.10;4.90;;;18.00;53.30;;;;;;4949347;28;110337;-70
2022/03/19 01:45:55;;;;;;;9.82;4.35;;;18.00;53.30;;;;;;4950066;28;98880;-71
2022/03/19 01:48:21;;;;;;;10.18;4.82;;;18.00;53.20;;;;;;4950217;28;98984;-71
2022/03/19 01:50:46;;;;;;;8.90;4.35;;;18.00;53.10;;;;;;4949566;28;99084;-71
2022/03/19 01:53:12;;;;;;;10.80;4.70;;;18.00;53.10;;;;;;4950615;28;99151;-70
2022/03/19 01:55:38;;;;;;;10.48;4.88;;;17.90;53.10;;;;;;4949785;28;105328;-70
2022/03/19 01:58:04;;;;;;;9.38;4.60;;;18.00;53.10;;;;;;4950958;28;98683;-70
2022/03/19 02:00:30;;;;;;;9.93;4.10;;;17.90;53.00;;;;;;4950029;28;99625;-70
2022/03/19 02:02:57;;;;;;;9.77;4.50;;;17.90;53.00;;;;;;4948952;28;99348;-70
2022/03/19 02:05:24;;;;;;;11.20;4.20;;;17.90;52.90;;;;;;4931731;28;102695;-70
2022/03/19 02:07:51;;;;;;;11.02;4.20;;;17.90;53.00;;;;;;4950821;28;98918;-70
2022/03/19 02:10:19;;;;;;;11.05;4.18;;;17.90;52.90;;;;;;4951580;28;99058;-71
2022/03/19 02:12:45;;;;;;;8.25;4.10;;;17.90;52.80;;;;;;4950790;28;99215;-70
2022/03/19 02:15:12;;;;;;;9.70;4.30;;;17.90;52.90;;;;;;4953146;28;99019;-71
2022/03/19 02:17:38;;;;;;;9.50;3.97;;;17.90;52.80;;;;;;4952072;28;98654;-71
2022/03/19 02:20:05;;;;;;;8.43;3.80;;;17.90;52.70;;;;;;4951376;28;97782;-71
2022/03/19 02:22:31;;;;;;;8.43;4.00;;;17.80;52.70;;;;;;4949586;28;100101;-70
2022/03/19 02:27:43;;;;;;;9.20;3.83;;;17.80;52.60;;;;;;4949666;28;99633;-71
2022/03/19 02:30:11;;;;;;;7.50;3.60;;;17.80;52.70;;;;;;4948966;28;98839;-71
2022/03/19 02:32:42;;;;;;;8.70;4.20;;;17.80;52.60;;;;;;4927583;28;100264;-70
2022/03/19 02:35:09;;;;;;;8.60;3.92;;;17.80;52.50;;;;;;4928218;28;100784;-70
2022/03/19 02:37:43;;;;;;;7.90;3.60;;;17.80;52.50;;;;;;4928354;28;98690;-70
2022/03/19 02:40:14;;;;;;;8.18;3.80;;;17.80;53.50;;;;;;4928143;28;98589;-71
2022/03/19 02:42:45;;;;;;;10.23;4.07;;;17.80;52.50;;;;;;4927924;28;99229;-71
2022/03/19 02:45:14;;;;;;;7.75;3.72;;;17.80;52.40;;;;;;4932333;28;99196;-70
2022/03/19 02:47:57;;;;;;;8.95;3.60;;;17.80;52.40;;;;;;4933486;28;98623;-71
2022/03/19 02:50:33;;;;;;;11.07;3.50;;;17.80;53.40;;;;;;4931183;28;99231;-71
2022/03/19 02:53:01;;;;;;;9.45;3.33;;;17.80;52.40;;;;;;4927220;28;103389;-70
2022/03/19 02:55:38;;;;;;;7.90;2.83;;;17.70;52.40;;;;;;4928198;28;100656;-70
2022/03/19 02:58:05;;;;;;;7.80;3.58;;;17.80;52.30;;;;;;4928340;28;100605;-71
2022/03/19 03:00:31;;;;;;;10.25;4.00;;;17.70;52.20;;;;;;4927719;28;98939;-70
2022/03/19 03:02:57;;;;;;;8.43;3.50;;;17.70;52.20;;;;;;4928142;28;99024;-70
2022/03/19 03:05:23;;;;;;;8.00;3.60;;;17.70;52.20;;;;;;4928131;28;98871;-71
2022/03/19 03:07:49;;;;;;;8.77;3.47;;;17.70;52.20;;;;;;4928300;28;99979;-70
2022/03/19 03:10:16;;;;;;;8.05;3.80;;;17.70;52.20;;;;;;4928413;28;97877;-70
2022/03/19 03:12:42;;;;;;;7.70;3.25;;;17.70;52.20;;;;;;4926497;28;100726;-71
2022/03/19 03:15:08;;;;;;;9.30;3.53;;;17.70;52.10;;;;;;4926903;28;98905;-70
2022/03/19 03:17:34;;;;;;;6.00;3.08;;;17.70;52.10;;;;;;4927363;28;101102;-70
2022/03/19 03:20:01;;;;;;;9.05;3.38;;;17.70;52.10;;;;;;4927819;28;98599;-70
2022/03/19 03:22:27;;;;;;;7.65;3.42;;;17.70;52.10;;;;;;4926913;28;100310;-71
2022/03/19 03:24:53;;;;;;;7.75;3.38;;;17.70;52.00;;;;;;4927490;28;100427;-71
2022/03/19 03:27:19;;;;;;;8.27;3.30;;;17.70;52.00;;;;;;4927808;28;98952;-70
2022/03/19 03:29:44;;;;;;;6.78;3.00;;;17.70;52.00;;;;;;4927742;28;98797;-71
2022/03/19 03:32:10;;;;;;;7.53;3.55;;;17.70;52.00;;;;;;4905519;28;1101610;-70
2022/03/19 03:34:37;;;;;;;7.85;2.95;;;17.70;52.00;;;;;;4948643;28;98964;-72
2022/03/19 03:37:04;;;;;;;7.88;3.30;;;17.70;52.00;;;;;;4950196;28;99117;-71
2022/03/19 03:39:29;;;;;;;7.53;3.45;;;17.70;51.90;;;;;;4949985;28;99037;-71
2022/03/19 03:41:55;;;;;;;5.93;2.78;;;17.70;51.90;;;;;;4948854;28;99883;-72
2022/03/19 03:44:20;;;;;;;7.32;3.28;;;17.70;52.00;;;;;;4947902;28;107664;-70
2022/03/19 03:46:46;;;;;;;7.40;3.03;;;17.60;51.90;;;;;;4947941;28;98822;-71
2022/03/19 03:49:13;;;;;;;7.10;3.30;;;17.60;51.90;;;;;;4951235;28;99048;-71
2022/03/19 03:51:39;;;;;;;8.07;3.10;;;17.60;51.90;;;;;;4949620;28;99597;-71
2022/03/19 03:54:07;;;;;;;6.90;3.00;;;17.60;51.80;;;;;;4948560;28;99060;-70
2022/03/19 03:56:34;;;;;;;8.10;3.70;;;17.60;51.70;;;;;;4947655;28;98827;-70
2022/03/19 03:59:00;;;;;;;7.50;3.25;;;17.60;51.70;;;;;;4946852;28;98275;-71
2022/03/19 04:01:25;;;;;;;7.53;3.10;;;17.60;51.80;;;;;;4947183;28;99292;-71
2022/03/19 04:03:51;;;;;;;7.15;2.75;;;17.60;51.80;;;;;;4947866;28;100624;-71
2022/03/19 04:06:17;;;;;;;7.13;3.00;;;17.60;51.90;;;;;;4948073;28;99285;-70
2022/03/19 04:08:42;;;;;;;7.63;3.10;;;17.60;51.80;;;;;;4949234;28;98928;-70
2022/03/19 04:11:08;;;;;;;7.50;2.95;;;17.60;51.70;;;;;;4947017;28;106923;-70
2022/03/19 04:13:35;;;;;;;7.07;3.10;;;17.60;51.70;;;;;;4947461;28;109117;-70
2022/03/19 04:16:00;;;;;;;6.55;3.00;;;17.60;51.70;;;;;;4947324;28;98775;-71
2022/03/19 04:18:26;;;;;;;4.78;2.65;;;17.50;51.70;;;;;;4948134;28;99806;-71
2022/03/19 04:20:53;;;;;;;8.20;3.40;;;17.50;51.70;;;;;;4947103;28;99228;-71
2022/03/19 04:23:18;;;;;;;8.05;2.90;;;17.50;51.80;;;;;;4947602;28;98905;-70
2022/03/19 04:25:44;;;;;;;7.10;3.03;;;17.50;51.70;;;;;;4947245;28;98911;-70
2022/03/19 04:28:12;;;;;;;7.10;3.13;;;17.50;51.70;;;;;;4948365;28;99162;-70
2022/03/19 04:30:38;;;;;;;6.53;2.72;;;17.50;51.70;;;;;;4946309;28;101940;-71
2022/03/19 04:33:04;;;;;;;6.97;2.95;;;17.50;51.70;;;;;;4945370;28;100594;-70
2022/03/19 04:38:25;;;;;;;7.60;2.90;;;17.50;51.60;;;;;;4947210;28;98593;-70
2022/03/19 04:40:52;;;;;;;7.40;3.10;;;17.50;51.70;;;;;;4946306;28;100132;-70
2022/03/19 04:43:17;;;;;;;7.05;3.10;;;17.50;51.70;;;;;;4945707;28;100943;-71
2022/03/19 04:45:43;;;;;;;5.55;2.72;;;17.50;51.60;;;;;;4946715;28;99054;-70
2022/03/19 04:48:09;;;;;;;8.05;3.53;;;17.50;51.60;;;;;;4946522;28;98492;-70
2022/03/19 04:50:39;;;;;;;6.82;2.78;;;17.50;51.70;;;;;;4946545;28;99749;-70
2022/03/19 04:53:07;;;;;;;7.68;3.10;;;17.50;51.60;;;;;;4945993;28;100520;-71
2022/03/19 04:55:36;;;;;;;6.82;2.78;;;17.50;51.60;;;;;;4946747;28;99626;-70
2022/03/19 04:58:03;;;;;;;8.00;3.22;;;17.50;51.60;;;;;;4945813;28;99241;-70
2022/03/19 05:00:29;;;;;;;9.68;3.17;;;17.40;51.50;;;;;;4946315;28;100465;-72
2022/03/19 05:02:55;;;;;;;8.15;2.78;;;17.40;51.60;;;;;;4946053;28;99017;-71
2022/03/19 05:05:24;;;;;;;9.27;2.78;;;17.40;51.70;;;;;;4945645;28;98991;-71
2022/03/19 05:07:54;;;;;;;11.13;2.88;;;17.40;51.70;;;;;;4946899;28;99136;-72
2022/03/19 05:13:04;;;;;;;7.15;2.50;;;17.50;51.80;;;;;;4950380;28;98463;-71
2022/03/19 05:15:30;;;;;;;6.80;2.65;;;17.50;51.80;;;;;;4949489;28;98936;-71
2022/03/19 05:26:14;;;;;;;10.80;2.83;;;17.60;52.50;;;;;;4909276;28;98841;-72
2022/03/19 05:28:39;;;;;;;17.88;3.38;;;17.60;52.60;;;;;;4911447;28;98605;-73
2022/03/19 05:31:07;;;;;;;10.52;3.25;;;17.60;52.70;;;;;;4911623;28;101752;-70
2022/03/19 05:36:17;;;;;;;9.48;3.13;;;17.70;52.60;;;;;;4912603;28;98943;-71
2022/03/19 05:38:43;;;;;;;11.45;3.03;;;17.80;53.00;;;;;;4911679;28;98338;-72
2022/03/19 05:41:10;;;;;;;9.07;2.80;;;17.80;52.90;;;;;;4910415;28;103996;-73
2022/03/19 05:43:35;;;;;;;11.70;2.70;;;17.80;52.80;;;;;;4910958;28;98869;-72
2022/03/19 05:46:01;;;;;;;12.60;3.00;;;17.90;53.10;;;;;;4910238;28;99272;-71
2022/03/19 05:48:27;;;;;;;7.28;2.65;;;17.90;52.90;;;;;;4911158;28;99405;-74
2022/03/19 05:50:53;;;;;;;10.50;2.67;;;17.90;53.20;;;;;;4910981;28;100871;-72
2022/03/19 05:53:18;;;;;;;8.32;3.10;;;18.00;53.10;;;;;;4910797;28;99199;-72
2022/03/19 05:55:44;;;;;;;14.38;2.80;;;18.00;52.90;;;;;;4911006;28;98675;-71
2022/03/19 05:58:09;;;;;;;9.52;3.00;;;18.10;53.50;;;;;;4910818;28;99223;-73
2022/03/19 06:00:35;;;;;;;7.15;2.50;;;18.10;53.50;;;;;;4910029;28;99596;-72
2022/03/19 06:03:01;;;;;;;11.60;2.70;;;18.10;53.50;;;;;;4911054;28;99350;-70
2022/03/19 06:05:26;;;;;;;9.35;2.80;;;18.10;53.60;;;;;;4911134;28;98812;-70
2022/03/19 06:07:52;;;;;;;5.57;2.40;;;18.20;53.30;;;;;;4910433;28;99043;-70
2022/03/19 06:10:18;;;;;;;7.05;2.40;;;18.30;53.30;;;;;;4909816;28;100626;-72
2022/03/19 06:12:46;;;;;;;7.50;2.53;;;18.30;52.90;;;;;;4910362;28;100987;-71
2022/03/19 06:15:12;;;;;;;10.70;2.58;;;18.30;52.80;;;;;;4910556;28;100243;-72
2022/03/19 06:17:38;;;;;;;8.77;2.50;;;18.40;53.00;;;;;;4911633;28;99171;-72
2022/03/19 06:20:04;;;;;;;9.98;2.58;;;18.40;53.00;;;;;;4909325;28;109373;-71
2022/03/19 06:22:29;;;;;;;8.02;2.55;;;18.50;52.70;;;;;;4909858;28;99073;-72
2022/03/19 06:24:55;;;;;;;8.15;2.70;;;18.50;52.70;;;;;;4927474;28;98887;-73
2022/03/19 06:27:22;;;;;;;10.18;2.60;;;18.60;52.50;;;;;;4930118;28;98086;-70
2022/03/19 06:29:48;;;;;;;6.00;2.55;;;18.60;52.30;;;;;;4929697;28;101115;-73
2022/03/19 06:32:17;;;;;;;6.45;2.30;;;18.60;52.00;;;;;;4929313;28;99811;-72
2022/03/19 06:34:43;;;;;;;8.38;2.60;;;18.60;51.80;;;;;;4929202;28;99929;-72
2022/03/19 06:37:20;;;;;;;8.63;2.83;;;18.60;51.60;;;;;;4931130;28;98564;-72
2022/03/19 06:39:53;;;;;;;10.80;3.25;;;18.60;52.30;;;;;;4929519;28;98982;-71
2022/03/19 06:42:19;;;;;;;6.87;2.77;;;18.70;51.60;;;;;;4930291;28;100645;-71
2022/03/19 06:44:44;;;;;;;7.85;2.53;;;18.70;51.20;;;;;;4929711;28;98668;-74
2022/03/19 06:47:10;;;;;;;12.05;2.47;;;18.70;51.10;;;;;;4929434;28;98879;-70
2022/03/19 06:49:36;;;;;;;7.07;2.40;;;18.70;51.00;;;;;;4928480;28;100411;-71
2022/03/19 06:52:02;;;;;;;9.10;2.78;;;18.60;50.90;;;;;;4929170;28;98763;-71
2022/03/19 06:54:27;;;;;;;6.95;2.33;;;18.60;50.90;;;;;;4911552;28;98861;-71
2022/03/19 06:56:54;;;;;;;8.95;2.33;;;18.60;51.00;;;;;;4930441;28;98634;-73
2022/03/19 06:59:19;;;;;;;9.13;2.40;;;18.60;51.10;;;;;;4927999;28;101819;-73
2022/03/19 07:01:45;;;;;;;6.78;2.42;;;18.70;51.40;;;;;;4912295;28;99138;-73
2022/03/19 07:04:11;;;;;;;9.20;2.60;;;18.70;51.40;;;;;;4931650;28;98919;-74
2022/03/19 07:06:36;;;;;;;10.68;2.20;;;18.70;51.50;;;;;;4933560;28;98993;-73
2022/03/19 07:09:03;;;;;;;7.20;2.17;;;18.70;51.30;;;;;;4936704;28;99291;-73
2022/03/19 07:11:30;;;;;;;6.63;2.00;;;18.70;51.30;;;;;;4930934;28;99451;-73
2022/03/19 07:13:56;;;;;;;8.18;2.60;;;18.80;51.20;;;;;;4930377;28;98638;-73
2022/03/19 07:16:21;;;;;;;7.03;2.10;;;18.80;51.10;;;;;;4929964;28;97962;-73
2022/03/19 07:18:47;;;;;;;6.78;2.20;;;18.80;51.00;;;;;;4928892;28;99968;-72
2022/03/19 07:21:15;;;;;;;5.38;2.13;;;18.90;51.00;;;;;;4929668;28;99416;-73
2022/03/19 07:23:41;;;;;;;6.30;2.30;;;18.90;50.80;;;;;;4928416;28;99549;-72
2022/03/19 07:26:07;;;;;;;10.70;2.58;;;19.00;50.90;;;;;;4929395;28;99004;-73
2022/03/19 07:28:32;;;;;;;9.48;2.47;;;19.00;51.20;;;;;;4929473;28;100197;-73
2022/03/19 07:30:58;;;;;;;6.95;2.22;;;19.00;51.10;;;;;;4929501;28;99097;-73
2022/03/19 07:33:24;;;;;;;6.22;2.08;;;18.90;50.80;;;;;;4930266;28;99248;-73
2022/03/19 07:35:50;;;;;;;6.85;2.05;;;19.00;50.70;;;;;;4928691;28;98937;-74
2022/03/19 07:38:15;;;;;;;7.38;2.42;;;19.00;50.50;;;;;;4926709;28;100429;-69
2022/03/19 07:43:26;;;;;;;8.32;2.40;;;19.00;50.40;;;;;;4928218;28;99136;-70
2022/03/19 07:45:52;;;;;;;6.78;2.10;;;19.00;50.30;;;;;;4927841;28;98606;-71
2022/03/19 07:48:18;;;;;;;8.02;2.35;;;19.10;50.30;;;;;;4927311;28;101180;-70
2022/03/19 07:50:44;;;;;;;7.20;2.38;;;19.10;50.30;;;;;;4926302;28;101220;-71
2022/03/19 07:53:10;;;;;;;4.22;1.83;;;19.10;50.20;;;;;;4928703;28;98677;-71
2022/03/19 07:55:36;;;;;;;4.68;1.88;;;19.10;50.10;;;;;;4928064;28;98621;-71
2022/03/19 07:58:02;;;;;;;7.18;1.80;;;19.10;50.00;;;;;;4928010;28;99917;-70
2022/03/19 08:00:29;;;;;;;6.43;2.08;;;19.20;49.90;;;;;;4928347;28;100073;-72
2022/03/19 08:02:54;;;;;;;5.80;2.00;;;19.20;49.80;;;;;;4929316;28;99108;-72
2022/03/19 08:05:20;;;;;;;5.28;1.90;;;19.20;49.60;;;;;;4929033;28;97812;-71
2022/03/19 08:07:46;;;;;;;7.40;2.10;;;19.30;49.40;;;;;;4927609;28;101573;-71
2022/03/19 08:10:13;;;;;;;5.40;1.75;;;19.30;49.40;;;;;;4927268;28;99872;-71
2022/03/19 08:12:41;;;;;;;5.07;1.92;;;19.30;49.30;;;;;;4927780;28;99693;-69
2022/03/19 08:15:08;;;;;;;6.47;1.90;;;19.40;49.30;;;;;;4928089;28;98932;-70
2022/03/19 08:17:38;;;;;;;5.38;1.85;;;19.40;49.20;;;;;;4926418;28;102144;-71
2022/03/19 08:20:08;;;;;;;5.43;2.00;;;19.50;49.30;;;;;;4927690;28;99897;-70
2022/03/19 08:22:35;;;;;;;7.25;2.10;;;19.50;49.30;;;;;;4927699;28;99126;-71
2022/03/19 08:25:01;;;;;;;4.47;1.70;;;19.50;49.40;;;;;;4926774;28;98775;-71
2022/03/19 08:27:27;;;;;;;6.15;2.20;;;19.50;49.60;;;;;;4927172;28;102173;-71
2022/03/19 08:29:53;;;;;;;5.38;1.92;;;19.50;49.70;;;;;;4927646;28;98786;-70
2022/03/19 08:32:20;;;;;;;7.22;1.80;;;19.50;49.70;;;;;;4927561;28;98722;-70
2022/03/19 08:34:46;;;;;;;4.60;1.95;;;19.40;49.80;;;;;;4927757;28;99017;-70
2022/03/19 08:37:13;;;;;;;6.13;2.10;;;19.40;49.90;;;;;;4927110;28;100272;-71
2022/03/19 08:42:23;;;;;;;5.15;1.63;;;19.30;50.00;;;;;;4928709;28;99233;-70
2022/03/19 08:44:49;;;;;;;7.43;1.95;;;19.30;50.00;;;;;;4929824;28;98605;-70
2022/03/19 08:47:16;;;;;;;5.18;1.73;;;19.30;50.00;;;;;;4931344;28;99212;-72
2022/03/19 08:49:41;;;;;;;7.20;2.08;;;19.20;50.00;;;;;;4929852;28;100341;-70
2022/03/19 08:52:07;;;;;;;6.25;1.40;;;19.20;50.00;;;;;;4931497;28;99483;-70
2022/03/19 08:54:33;;;;;;;6.50;1.77;;;19.20;50.10;;;;;;4932658;28;98264;-70
2022/03/19 08:56:59;;;;;;;5.65;1.45;;;19.20;50.20;;;;;;4931870;28;99221;-71
2022/03/19 08:59:25;;;;;;;4.82;1.65;;;19.10;50.20;;;;;;4931711;28;99864;-70
2022/03/19 09:01:51;;;;;;;5.05;1.77;;;19.10;50.20;;;;;;4931606;28;99568;-70
2022/03/19 09:04:20;;;;;;;4.75;1.65;;;19.10;50.30;;;;;;4931301;28;98926;-70
2022/03/19 09:06:46;;;;;;;6.07;1.83;;;19.00;50.30;;;;;;4930783;28;99181;-70
2022/03/19 09:09:14;;;;;;;3.47;1.55;;;19.00;50.30;;;;;;4931477;28;98877;-70
2022/03/19 09:11:40;;;;;;;6.05;1.88;;;19.00;50.40;;;;;;4930537;28;98756;-71
2022/03/19 09:14:07;;;;;;;4.53;1.60;;;19.00;50.40;;;;;;4931555;28;98591;-70
2022/03/19 09:16:35;;;;;;;4.18;1.50;;;18.90;50.40;;;;;;4930238;28;99314;-70
2022/03/19 09:19:02;;;;;;;4.82;1.48;;;18.90;50.40;;;;;;4929763;28;99438;-70
2022/03/19 09:21:29;;;;;;;4.97;1.60;;;18.90;50.40;;;;;;4930020;28;98982;-70
2022/03/19 09:23:55;;;;;;;3.45;1.65;;;18.90;50.50;;;;;;4929847;28;98614;-70
2022/03/19 09:26:21;;;;;;;6.07;1.80;;;18.80;50.40;;;;;;4929740;28;100818;-70
2022/03/19 09:28:47;;;;;;;4.07;1.70;;;18.80;50.40;;;;;;4929763;28;100523;-71
2022/03/19 09:31:15;;;;;;;6.47;1.77;;;18.80;50.40;;;;;;4930632;28;99053;-71
2022/03/19 09:33:42;;;;;;;3.78;1.50;;;18.80;50.40;;;;;;4929556;28;99025;-70
2022/03/19 09:36:07;;;;;;;4.30;1.63;;;18.80;50.50;;;;;;4930167;28;100802;-70
2022/03/19 09:38:33;;;;;;;3.60;1.40;;;18.80;50.40;;;;;;4929709;28;106432;-70
2022/03/19 09:41:00;;;;;;;7.63;1.70;;;18.70;50.30;;;;;;4930490;28;98495;-70
2022/03/19 09:43:27;;;;;;;5.93;1.77;;;18.80;50.30;;;;;;4931214;28;98278;-70
2022/03/19 09:45:53;;;;;;;5.88;1.60;;;18.80;50.20;;;;;;4928748;28;99457;-70
2022/03/19 09:48:19;;;;;;;4.13;1.42;;;18.80;50.20;;;;;;4930207;28;99058;-70
2022/03/19 09:50:49;;;;;;;4.05;1.60;;;18.80;50.10;;;;;;4928393;28;99761;-70
2022/03/19 09:53:19;;;;;;;4.07;1.40;;;18.70;50.00;;;;;;4930793;28;98519;-71
2022/03/19 09:55:45;;;;;;;3.30;1.40;;;18.70;50.00;;;;;;4928979;28;99218;-70
2022/03/19 09:58:12;;;;;;;5.68;1.60;;;18.70;50.00;;;;;;4930647;28;98755;-70
2022/03/19 10:00:37;;;;;;;5.00;1.40;;;18.70;49.90;;;;;;4929444;28;99482;-70
2022/03/19 10:03:08;;;;;;;4.25;1.60;;;18.80;50.00;;;;;;4929615;28;100265;-70
2022/03/19 10:08:35;;;;;;;4.80;1.70;;;18.80;49.90;;;;;;4930794;28;98894;-70
2022/03/19 10:11:02;;;;;;;4.40;1.42;;;18.70;49.90;;;;;;4929140;28;99177;-70
2022/03/19 10:13:28;;;;;;;5.63;1.75;;;18.70;49.70;;;;;;4930307;28;99255;-71
2022/03/19 10:15:54;;;;;;;3.75;1.63;;;18.70;49.70;;;;;;4928487;28;100678;-70
2022/03/19 10:18:27;;;;;;;3.47;1.30;;;18.80;49.70;;;;;;4930356;28;99659;-70
2022/03/19 10:20:53;;;;;;;4.68;1.63;;;18.80;49.60;;;;;;4929518;28;98689;-70
2022/03/19 10:23:39;;;;;;;3.35;1.48;;;18.80;49.60;;;;;;4930801;28;99045;-70
2022/03/19 10:26:05;;;;;;;4.55;1.85;;;18.80;49.60;;;;;;4929115;28;101085;-70
2022/03/19 10:28:33;;;;;;;4.22;1.30;;;18.80;49.60;;;;;;4929323;28;98888;-71
2022/03/19 10:30:58;;;;;;;3.22;1.50;;;18.80;49.50;;;;;;4930152;28;98859;-70
2022/03/19 10:33:32;;;;;;;4.63;1.67;;;18.80;49.50;;;;;;4932815;28;98769;-70
2022/03/19 10:36:11;;;;;;;5.63;1.50;;;18.80;49.40;;;;;;4936952;28;100351;-69
2022/03/19 10:38:46;;;;;;;3.50;1.40;;;18.80;49.30;;;;;;4936888;28;100063;-70
2022/03/19 10:41:17;;;;;;;5.40;1.35;;;18.80;49.40;;;;;;4929464;28;99750;-70
2022/03/19 10:43:46;;;;;;;5.68;1.63;;;18.80;49.30;;;;;;4930984;28;99091;-70
2022/03/19 10:46:13;;;;;;;4.65;1.55;;;18.80;49.30;;;;;;4929193;28;100305;-70
2022/03/19 10:48:39;;;;;;;2.95;1.27;;;18.70;49.20;;;;;;4929542;28;100007;-70
2022/03/19 10:51:08;;;;;;;4.50;1.35;;;18.80;49.20;;;;;;4929579;28;99208;-70
2022/03/19 10:53:35;;;;;;;4.10;1.55;;;18.80;49.20;;;;;;4929262;28;98626;-70
2022/03/19 10:56:01;;;;;;;6.45;1.63;;;18.80;49.10;;;;;;4929744;28;99375;-71
2022/03/19 10:58:27;;;;;;;3.85;1.60;;;18.80;49.00;;;;;;4929653;28;100703;-70
2022/03/19 11:00:53;;;;;;;2.97;1.55;;;18.80;48.90;;;;;;4930219;28;99012;-71
2022/03/19 11:03:23;;;;;;;4.88;1.60;;;18.80;48.90;;;;;;4929907;28;99053;-71
2022/03/19 11:05:52;;;;;;;4.68;1.50;;;18.80;48.80;;;;;;4928616;28;100072;-71
2022/03/19 11:08:23;;;;;;;3.25;1.20;;;18.80;48.80;;;;;;4929416;28;99907;-70
2022/03/19 11:10:50;;;;;;;3.75;1.20;;;18.80;48.80;;;;;;4929164;28;98802;-70
2022/03/19 11:13:20;;;;;;;5.13;1.52;;;18.80;48.80;;;;;;4929297;28;99227;-70
2022/03/19 11:15:49;;;;;;;6.25;1.83;;;18.80;48.80;;;;;;4928625;28;99003;-70
2022/03/19 11:18:18;;;;;;;3.42;1.27;;;18.80;48.80;;;;;;4929086;28;99245;-71
2022/03/19 11:20:45;;;;;;;3.08;1.20;;;18.80;48.80;;;;;;4929455;28;99179;-70
2022/03/19 11:23:14;;;;;;;3.53;1.42;;;18.80;48.80;;;;;;4929668;28;98168;-69
2022/03/19 11:25:47;;;;;;;3.85;1.70;;;18.80;48.80;;;;;;4928984;28;101083;-70
2022/03/19 11:28:14;;;;;;;5.35;1.30;;;18.80;48.80;;;;;;4928552;28;99933;-70
2022/03/19 11:30:42;;;;;;;2.53;1.15;;;18.80;48.80;;;;;;4928913;28;99563;-70
2022/03/19 11:33:17;;;;;;;4.05;1.27;;;18.80;48.70;;;;;;4929390;28;99596;-70
2022/03/19 11:35:58;;;;;;;6.05;1.30;;;18.80;48.60;;;;;;4928956;28;99158;-70
2022/03/19 11:38:25;;;;;;;3.25;1.27;;;18.80;48.70;;;;;;4929063;28;98646;-68
2022/03/19 11:40:56;;;;;;;3.13;1.30;;;18.80;48.80;;;;;;4928195;28;99182;-67
2022/03/19 11:43:24;;;;;;;4.60;1.55;;;18.80;48.70;;;;;;4929082;28;98662;-67
2022/03/19 11:46:00;;;;;;;3.40;1.30;;;18.80;48.70;;;;;;4928156;28;99063;-68
2022/03/19 11:48:35;;;;;;;2.90;1.17;;;18.80;48.70;;;;;;4928952;28;100465;-67
2022/03/19 11:51:24;;;;;;;2.83;1.13;;;18.80;48.70;;;;;;4928788;28;98544;-67
2022/03/19 11:54:19;;;;;;;5.00;1.40;;;18.80;48.60;;;;;;4929119;28;98760;-68
2022/03/19 11:56:45;;;;;;;3.20;1.17;;;18.80;48.70;;;;;;4927243;28;101538;-68
2022/03/19 11:59:23;;;;;;;4.32;1.45;;;18.70;48.70;;;;;;4929076;28;101128;-68
2022/03/19 12:01:54;;;;;;;3.35;1.35;;;18.80;48.80;;;;;;4928213;28;98691;-68
2022/03/19 12:04:24;;;;;;;3.42;1.30;;;18.80;48.80;;;;;;4929128;28;98712;-68
2022/03/19 12:06:59;;;;;;;3.85;1.13;;;18.80;48.80;;;;;;4927578;28;100613;-68
2022/03/19 12:09:50;;;;;;;3.42;1.20;;;18.80;48.70;;;;;;4928965;28;100072;-68
2022/03/19 12:12:16;;;;;;;2.60;1.13;;;18.80;48.70;;;;;;4925660;28;99877;-69
2022/03/19 12:14:43;;;;;;;3.15;1.38;;;18.70;48.70;;;;;;4930565;28;97907;-69
2022/03/19 12:17:27;;;;;;;5.82;1.10;;;18.80;48.70;;;;;;4931262;28;99107;-70
2022/03/19 12:19:55;;;;;;;4.00;1.08;;;18.80;48.60;;;;;;4932589;28;99725;-69
2022/03/19 12:22:36;;;;;;;4.43;1.25;;;18.80;48.60;;;;;;4931362;28;99699;-69
2022/03/19 12:25:10;;;;;;;2.88;1.20;;;18.80;48.60;;;;;;4927153;28;98898;-68
2022/03/19 12:27:36;;;;;;;3.08;1.10;;;18.80;48.60;;;;;;4926962;28;100164;-69
2022/03/19 12:30:03;;;;;;;3.80;1.00;;;18.80;48.70;;;;;;4928226;28;98820;-68
2022/03/19 12:32:29;;;;;;;2.92;1.10;;;18.80;48.70;;;;;;4928571;28;98598;-69
2022/03/19 12:34:59;;;;;;;3.78;1.63;;;18.80;48.60;;;;;;4928401;28;98551;-70
2022/03/19 12:37:25;;;;;;;4.30;1.33;;;18.80;48.70;;;;;;4926244;28;99388;-68
2022/03/19 12:40:01;;;;;;;3.17;0.93;;;18.80;48.60;;;;;;4927654;28;100018;-68
2022/03/19 12:42:35;;;;;;;2.17;1.08;;;18.80;48.70;;;;;;4928311;28;99050;-68
2022/03/19 12:45:03;;;;;;;3.22;1.10;;;18.80;48.60;;;;;;4928056;28;99005;-68
2022/03/19 12:47:29;;;;;;;4.63;1.10;;;18.80;48.70;;;;;;4927229;28;101815;-67
2022/03/19 12:49:55;;;;;;;3.38;1.33;;;18.80;48.60;;;;;;4927198;28;99500;-68
2022/03/19 12:52:22;;;;;;;4.22;1.30;;;18.80;48.60;;;;;;4928271;28;98526;-68
2022/03/19 12:54:51;;;;;;;3.05;1.13;;;18.80;48.50;;;;;;4928112;28;100051;-68
2022/03/19 12:57:27;;;;;;;3.38;1.10;;;18.80;48.50;;;;;;4926159;28;100834;-70
2022/03/19 12:59:55;;;;;;;2.05;0.90;;;18.80;48.30;;;;;;4927470;28;99900;-68
2022/03/19 13:02:26;;;;;;;1.83;1.08;;;18.80;48.30;;;;;;4927202;28;98682;-68
2022/03/19 13:04:52;;;;;;;2.67;0.98;;;18.90;48.40;;;;;;4928583;28;97874;-68
2022/03/19 13:07:18;;;;;;;2.35;1.05;;;18.90;48.30;;;;;;4925650;28;102368;-68
2022/03/19 13:09:45;;;;;;;2.42;1.15;;;18.90;48.30;;;;;;4927355;28;98665;-68
2022/03/19 13:12:24;;;;;;;2.15;1.08;;;18.90;48.30;;;;;;4927150;28;99395;-68